Metar Cercanos

 

LEPA - Palma De Mallorc, Spain
Distance from station: ONO 38km
Actualización: 27/05/2018 01:00
Parcialmente nuboso
Parcialmente nuboso
 Viento del ENE
Viento: ENE 13 km/h
Temperatura: 20°C
Rocío: 18°C
Humedad: 88%
Barómetro: 1013 hPa
Clouds: Parcialmente nuboso
Visibility: 10 km
Cloud details: Parcialmente nuboso 518 m
2018/05/26 23:00 LEPA 262300Z 06007KT 020V080 9999 SCT017 20/18 Q1013 NOSIG
LEMH - Mahon/Menorca Is, Spain
Distance from station: ENE 105km
Actualización: 27/05/2018 01:00
Despejado
Despejado
 Viento del E
Viento: E 11 km/h
Temperatura: 18°C
Rocío: 17°C
Humedad: 94%
Barómetro: 1013 hPa
Clouds: Despejado
Visibility: 10 km
2018/05/26 23:00 LEMH 262300Z AUTO 09006KT 9999 NCD 18/17 Q1013
 
LEIB - Ibiza/Es Codola, Spain
Distance from station: OSO 165km
Actualización: 27/05/2018 01:00
Muy nuboso
Muy nuboso
 Viento del O
Viento: O 9 km/h
Temperatura: 20°C
Rocío: 17°C
Humedad: 83%
Barómetro: 1013 hPa
Clouds: Muy nuboso
Visibility: 10 km
Cloud details: Few Clouds 457 m
Muy nuboso 762 m
2018/05/26 23:00 LEIB 262300Z 28005KT 240V310 9999 FEW015 BKN025 20/17 Q1013 NOSIG
LEBL - Barcelona Airpor, Spain
Distance from station: NNO 225km
Actualización: 27/05/2018 01:00
Few Clouds
Few Clouds
 Viento del ENE
Viento: ENE 20 km/h
Temperatura: 20°C
Rocío: 15°C
Humedad: 73%
Barómetro: 1014 hPa
Clouds: Few Clouds
Visibility: 10 km
Cloud details: Few Clouds 610 m
2018/05/26 23:00 LEBL 262300Z 06011KT 9999 FEW020 20/15 Q1014 NOSIG
 
LEVC - Valencia (civ/Mi, Spain
Distance from station: NO 188km
Actualización: 27/05/2018 01:00
Muy nuboso
Muy nuboso
 Viento del varies
Viento: varies 4 km/h
Temperatura: 20°C
Rocío: 17°C
Humedad: 83%
Barómetro: 1014 hPa
Clouds: Muy nuboso
Visibility: 10 km
Cloud details: Few Clouds 366 m
Muy nuboso 762 m
2018/05/26 23:00 LEVC 262300Z VRB02KT 9999 FEW012 BKN025 20/17 Q1014 NOSIG
LEGE - Gerona/Costa Bra, Spain
Distance from station: N 276km
Actualización: 27/05/2018 01:00
Few Clouds
Few Clouds
 Viento del N
Viento: N 9 km/h
Temperatura: 15°C
Rocío: 14°C
Humedad: 94%
Barómetro: 1016 hPa
Clouds: Few Clouds
Visibility: 10 km
Cloud details: Few Clouds 914 m
2018/05/26 23:00 LEGE 262300Z 01005KT 330V030 9999 FEW030 15/14 Q1016
 
LEAL - Alicante/El Alte, Spain
Distance from station: OSO 344km
Actualización: 27/05/2018 01:00
Parcialmente nuboso
Parcialmente nuboso
 Viento del varies
Viento: varies 4 km/h
Temperatura: 20°C
Rocío: 18°C
Humedad: 88%
Barómetro: 1013 hPa
Clouds: Parcialmente nuboso
Visibility: 10 km
Cloud details: Few Clouds 305 m
Parcialmente nuboso 457 m
2018/05/26 23:00 LEAL 262300Z VRB02KT 9999 FEW010 SCT015 20/18 Q1013 NOSIG
LEAM - Almeria Airport, Spain
Distance from station: SSO 56km
Actualización: 27/05/2018 01:00
Despejado
Despejado
 Viento del varies
Viento: varies 4 km/h
Temperatura: 19°C
Rocío: 15°C
Humedad: 78%
Barómetro: 1012 hPa
Clouds: Despejado
Visibility: 10 km
2018/05/26 23:00 LEAM 262300Z AUTO VRB02KT 9999 NCD 19/15 Q1012
 
LEZG - Zaragoza (mil/Ci, Spain
Distance from station: NO 431km
Actualización: 27/05/2018 01:00
Few Clouds
Few Clouds
 Viento del E
Viento: E 6 km/h
Temperatura: 17°C
Rocío: 16°C
Humedad: 94%
Barómetro: 1014 hPa
Clouds: Few Clouds
Visibility: 10 km
Cloud details: Few Clouds 2438 m
2018/05/26 23:00 LEZG 262300Z 09003KT 9999 FEW080 17/16 Q1014
LEMD - Madrid/Barajas, Spain
Distance from station: ONO 234km
Actualización: 27/05/2018 01:00
Despejado
Despejado
 Viento del N
Viento: N 2 km/h
Temperatura: 15°C
Rocío: 12°C
Humedad: 82%
Barómetro: 1014 hPa
Resumen: Despejado
Visibility: greater than 10 km
2018/05/26 23:00 LEMD 262300Z 36001KT CAVOK 15/12 Q1014 NOSIG
 
LEGR - Granada Airport, Spain
Distance from station: OSO 62km
Actualización: 27/05/2018 01:00
Despejado
Despejado
 Viento del OSO
Viento: OSO 7 km/h
Temperatura: 17°C
Rocío: 11°C
Humedad: 68%
Barómetro: 1014 hPa
Clouds: Despejado
Visibility: 10 km
2018/05/26 23:00 LEGR 262300Z AUTO 25004KT 9999 NCD 17/11 Q1014
LEMG - Malaga (civ/Mil), Spain
Distance from station: OSO 227km
Actualización: 27/05/2018 01:00
Despejado
Despejado
 Viento del calm
Viento: Calma
Temperatura: 19°C
Rocío: 14°C
Humedad: 73%
Barómetro: 1012 hPa
Resumen: Despejado
Visibility: greater than 10 km
2018/05/26 23:00 LEMG 262300Z 00000KT CAVOK 19/14 Q1012 NOSIG
 
LEZL - Sevilla (civ/Mil, Spain
Distance from station: S 318km
Actualización: 27/05/2018 01:00
Despejado
Despejado
 Viento del SSO
Viento: SSO 9 km/h
Temperatura: 17°C
Rocío: 14°C
Humedad: 83%
Barómetro: 1013 hPa
Resumen: Despejado
Visibility: greater than 10 km
2018/05/26 23:00 LEZL 262300Z 21005KT CAVOK 17/14 Q1013 NOSIG
LEVT - Vitoria, Spain
Distance from station: NO 226km
Actualización: 27/05/2018 01:00
Few Clouds
Few Clouds
 Viento del ENE
Viento: ENE 4 km/h
Temperatura: 10°C
Rocío: 9°C
Humedad: 94%
Barómetro: 1015 hPa
Clouds: Few Clouds
Visibility: 10 km
Cloud details: Few Clouds 366 m
2018/05/26 23:00 LEVT 262300Z 07002KT 9999 FEW012 10/09 Q1015
 
LEBB - Bilbao/Sondica, Spain
Distance from station: NNO 235km
Actualización: 27/05/2018 01:00
Muy nuboso
Muy nuboso
 Viento del calm
Viento: Calma
Temperatura: 14°C
Rocío: 14°C
Humedad: 100%
Barómetro: 1015 hPa
Clouds: Muy nuboso
Visibility: 8 km
Cloud details: Parcialmente nuboso 762 m
Muy nuboso 975 m
2018/05/26 23:00 LEBB 262300Z AUTO 00000KT 8000 SCT025/// BKN032/// 14/14 Q1015
LESO - San Sebastian/Fu, Spain
Distance from station: N 231km
Actualización: 27/05/2018 01:00
Nearby thunderstorm, Thunderstorm
Nearby thunderstorm, Thunderstorm
 Viento del varies
Viento: varies 2 km/h
Temperatura: 17°C
Rocío: 16°C
Humedad: 94%
Barómetro: 1015 hPa
Resumen: Nearby Thunderstorm
Clouds: Thunderstorm
Visibility: 10 km
Cloud details: Few Clouds 762 m
2018/05/26 23:00 LESO 262300Z AUTO VRB01KT 9999 VCTS FEW025 ///CB 17/16 Q1015
 
LEVD - Valladolid(Mil/C, Spain
Distance from station: ONO 239km
Actualización: 26/05/2018 21:30
NOT Current
Nearby showers, Few clouds
Nearby showers, Few clouds
 Viento del S
Viento: S 7 km/h
Temperatura: 16°C
Rocío: 10°C
Humedad: 68%
Barómetro: 1014 hPa
Resumen: Nearby Showers
Clouds: Few Clouds
Visibility: 10 km
Cloud details: Parcialmente nuboso 1219 m
Few Clouds 1463 m
2018/05/26 19:30 LEVD 261930Z 19004KT 9999 VCSH SCT040 FEW048CB 16/10 Q1014
LESA - Salamanca (civ/M, Spain
Distance from station: ONO 349km
Actualización: 26/05/2018 21:00
NOT Current
Few Clouds
Few Clouds
 Viento del NO
Viento: NO 15 km/h
Temperatura: 17°C
Rocío: 9°C
Humedad: 59%
Barómetro: 1014 hPa
Clouds: Few Clouds
Visibility: 10 km
Cloud details: Few Clouds 1372 m
2018/05/26 19:00 LESA 261900Z 31008KT 9999 FEW045 17/09 Q1014
 
LEXJ - Santander/Paraya, Spain
Distance from station: NNO 247km
Actualización: 27/05/2018 01:00
Muy nuboso
Muy nuboso
 Viento del OSO
Viento: OSO 6 km/h
Temperatura: 16°C
Rocío: 16°C
Humedad: 100%
Barómetro: 1015 hPa
Clouds: Muy nuboso
Visibility: 8 km
Cloud details: Muy nuboso 305 m
Muy nuboso 792 m
2018/05/26 23:00 LEXJ 262300Z AUTO 24003KT 8000 BKN010/// BKN026/// 16/16 Q1015
LEAS - Asturias/Aviles, Spain
Distance from station: NO 214km
Actualización: 27/05/2018 01:00
Parcialmente nuboso
Parcialmente nuboso
 Viento del ONO
Viento: ONO 15 km/h
Temperatura: 15°C
Rocío: 14°C
Humedad: 94%
Barómetro: 1015 hPa
Clouds: Parcialmente nuboso
Visibility: 7 km
Cloud details: Few Clouds 305 m
Parcialmente nuboso 762 m
2018/05/26 23:00 LEAS 262300Z 29008KT 250V320 7000 FEW010 SCT025 15/14 Q1015 TEMPO 3000 -DZ BR BKN005
 
LECO - La Coruna/Alvedr, Spain
Distance from station: ONO 222km
Actualización: 27/05/2018 01:00
Mist, Cubierto
Mist, Cubierto
 Viento del varies
Viento: varies 2 km/h
Temperatura: 14°C
Rocío: 13°C
Humedad: 94%
Barómetro: 1016 hPa
Resumen: Mist
Clouds: Cubierto
Visibility: 5 km
Cloud details: Few Clouds 244 m
Cubierto 610 m
2018/05/26 23:00 LECO 262300Z VRB01KT 5000 BR FEW008 OVC020 14/13 Q1016 TEMPO 2000 BR BKN010
LEVX - Vigo/Peinador, Spain
Distance from station: O 214km
Actualización: 27/05/2018 01:00
Parcialmente nuboso
Parcialmente nuboso
 Viento del NNE
Viento: NNE 7 km/h
Temperatura: 14°C
Rocío: 13°C
Humedad: 94%
Barómetro: 1015 hPa
Clouds: Parcialmente nuboso
Visibility: 8 km
2018/05/26 23:00 LEVX 262300Z 02004KT 8000 NSC 14/13 Q1015 NOSIG